Terminal Aerodrome Forecast
Issued by NWS Des Moines, IA

Home | Current Version | Previous Version | Text Only | Print | Product List | Glossary On
Versions: 1 2 3 4 5 6 7 8 9 10 11 12 13 14 15 16 17 18 19 20 21 22
000
FTUS43 KDMX 241900 AAA
TAFALO
TAF AMD
KALO 241900Z 2419/2518 17011KT 2SM BR VCSH OVC003
      TEMPO 2419/2422 1/2SM -RA FG OVC002
     FM242300 22006KT 1SM BR OVC012
     FM250400 28008KT 5SM BR SCT025 BKN120
     FM250900 33008KT P6SM SKC=

USA.gov is the U.S. government's official web portal to all federal, state and local government web resources and services.